sensor_id;sensor_type;location;lat;lon;timestamp;temperature;humidity
18717;DHT22;9487;50.892;6.906;2024-02-26T00:01:50;8.30;1.00
18717;DHT22;9487;50.892;6.906;2024-02-26T00:04:19;8.30;1.00
18717;DHT22;9487;50.892;6.906;2024-02-26T00:06:47;8.20;1.00
18717;DHT22;9487;50.892;6.906;2024-02-26T00:09:16;8.20;78.80
18717;DHT22;9487;50.892;6.906;2024-02-26T00:11:42;8.20;99.90
18717;DHT22;9487;50.892;6.906;2024-02-26T00:14:09;8.10;1.00
18717;DHT22;9487;50.892;6.906;2024-02-26T00:16:36;8.10;1.00
18717;DHT22;9487;50.892;6.906;2024-02-26T00:19:03;8.00;1.00
18717;DHT22;9487;50.892;6.906;2024-02-26T00:21:31;7.90;99.90
18717;DHT22;9487;50.892;6.906;2024-02-26T00:23:58;7.70;1.00
18717;DHT22;9487;50.892;6.906;2024-02-26T00:26:24;7.70;1.00
18717;DHT22;9487;50.892;6.906;2024-02-26T00:28:51;7.80;1.00
18717;DHT22;9487;50.892;6.906;2024-02-26T00:31:18;7.80;99.90
18717;DHT22;9487;50.892;6.906;2024-02-26T00:33:45;7.90;99.90
18717;DHT22;9487;50.892;6.906;2024-02-26T00:36:12;7.80;99.90
18717;DHT22;9487;50.892;6.906;2024-02-26T00:38:40;7.80;99.90
18717;DHT22;9487;50.892;6.906;2024-02-26T00:41:08;7.90;99.90
18717;DHT22;9487;50.892;6.906;2024-02-26T00:43:35;7.80;99.90
18717;DHT22;9487;50.892;6.906;2024-02-26T00:46:03;7.70;99.90
18717;DHT22;9487;50.892;6.906;2024-02-26T00:48:30;7.70;1.00
18717;DHT22;9487;50.892;6.906;2024-02-26T00:50:57;7.70;1.00
18717;DHT22;9487;50.892;6.906;2024-02-26T00:53:24;7.60;1.00
18717;DHT22;9487;50.892;6.906;2024-02-26T00:55:52;7.70;1.00
18717;DHT22;9487;50.892;6.906;2024-02-26T00:58:19;7.60;1.00
18717;DHT22;9487;50.892;6.906;2024-02-26T01:00:46;7.60;99.90
18717;DHT22;9487;50.892;6.906;2024-02-26T01:03:15;7.70;99.90
18717;DHT22;9487;50.892;6.906;2024-02-26T01:05:42;7.60;99.90
18717;DHT22;9487;50.892;6.906;2024-02-26T01:08:08;7.60;99.90
18717;DHT22;9487;50.892;6.906;2024-02-26T01:10:35;7.60;1.00
18717;DHT22;9487;50.892;6.906;2024-02-26T01:13:03;7.50;1.00
18717;DHT22;9487;50.892;6.906;2024-02-26T01:15:30;7.50;1.00
18717;DHT22;9487;50.892;6.906;2024-02-26T01:17:58;7.50;1.00
18717;DHT22;9487;50.892;6.906;2024-02-26T01:20:25;7.40;1.00
18717;DHT22;9487;50.892;6.906;2024-02-26T01:22:52;7.50;1.00
18717;DHT22;9487;50.892;6.906;2024-02-26T01:25:19;7.60;1.00
18717;DHT22;9487;50.892;6.906;2024-02-26T01:27:45;7.60;1.00
18717;DHT22;9487;50.892;6.906;2024-02-26T01:30:14;7.50;1.00
18717;DHT22;9487;50.892;6.906;2024-02-26T01:32:41;7.60;1.00
18717;DHT22;9487;50.892;6.906;2024-02-26T01:35:08;7.50;1.00
18717;DHT22;9487;50.892;6.906;2024-02-26T01:37:37;7.60;1.00
18717;DHT22;9487;50.892;6.906;2024-02-26T01:40:05;7.50;1.00
18717;DHT22;9487;50.892;6.906;2024-02-26T01:42:32;7.50;1.00
18717;DHT22;9487;50.892;6.906;2024-02-26T01:44:59;7.50;1.00
18717;DHT22;9487;50.892;6.906;2024-02-26T01:47:28;7.50;1.00
18717;DHT22;9487;50.892;6.906;2024-02-26T01:49:55;7.40;1.00
18717;DHT22;9487;50.892;6.906;2024-02-26T01:52:22;7.50;6.20
18717;DHT22;9487;50.892;6.906;2024-02-26T01:54:50;7.50;1.00
18717;DHT22;9487;50.892;6.906;2024-02-26T01:57:17;7.60;1.00
18717;DHT22;9487;50.892;6.906;2024-02-26T01:59:44;7.50;1.00
18717;DHT22;9487;50.892;6.906;2024-02-26T02:02:12;7.50;4.30
18717;DHT22;9487;50.892;6.906;2024-02-26T02:04:40;7.40;71.30
18717;DHT22;9487;50.892;6.906;2024-02-26T02:07:07;7.40;99.90
18717;DHT22;9487;50.892;6.906;2024-02-26T02:09:34;7.40;99.90
18717;DHT22;9487;50.892;6.906;2024-02-26T02:12:01;7.40;99.90
18717;DHT22;9487;50.892;6.906;2024-02-26T02:14:28;7.40;99.90
18717;DHT22;9487;50.892;6.906;2024-02-26T02:16:55;7.40;99.90
18717;DHT22;9487;50.892;6.906;2024-02-26T02:19:22;7.50;99.90
18717;DHT22;9487;50.892;6.906;2024-02-26T02:21:51;7.60;26.10
18717;DHT22;9487;50.892;6.906;2024-02-26T02:24:17;7.50;1.00
18717;DHT22;9487;50.892;6.906;2024-02-26T02:26:44;7.50;1.00
18717;DHT22;9487;50.892;6.906;2024-02-26T02:29:12;7.50;45.40
18717;DHT22;9487;50.892;6.906;2024-02-26T02:31:39;7.40;99.90
18717;DHT22;9487;50.892;6.906;2024-02-26T02:34:06;7.40;99.90
18717;DHT22;9487;50.892;6.906;2024-02-26T02:36:33;7.40;99.90
18717;DHT22;9487;50.892;6.906;2024-02-26T02:39:01;7.40;99.90
18717;DHT22;9487;50.892;6.906;2024-02-26T02:41:28;7.50;99.90
18717;DHT22;9487;50.892;6.906;2024-02-26T02:43:55;7.40;99.90
18717;DHT22;9487;50.892;6.906;2024-02-26T02:46:23;7.40;99.90
18717;DHT22;9487;50.892;6.906;2024-02-26T02:48:49;7.40;1.00
18717;DHT22;9487;50.892;6.906;2024-02-26T02:51:16;7.40;1.00
18717;DHT22;9487;50.892;6.906;2024-02-26T02:53:43;7.50;1.00
18717;DHT22;9487;50.892;6.906;2024-02-26T02:56:12;7.40;1.00
18717;DHT22;9487;50.892;6.906;2024-02-26T02:58:38;7.30;1.00
18717;DHT22;9487;50.892;6.906;2024-02-26T03:01:05;7.20;1.00
18717;DHT22;9487;50.892;6.906;2024-02-26T03:03:33;7.20;1.00
18717;DHT22;9487;50.892;6.906;2024-02-26T03:05:59;7.30;1.00
18717;DHT22;9487;50.892;6.906;2024-02-26T03:08:26;7.30;1.00
18717;DHT22;9487;50.892;6.906;2024-02-26T03:10:53;7.30;1.00
18717;DHT22;9487;50.892;6.906;2024-02-26T03:13:21;7.30;1.00
18717;DHT22;9487;50.892;6.906;2024-02-26T03:15:48;7.30;1.00
18717;DHT22;9487;50.892;6.906;2024-02-26T03:18:15;7.30;1.00
18717;DHT22;9487;50.892;6.906;2024-02-26T03:20:42;7.20;66.20
18717;DHT22;9487;50.892;6.906;2024-02-26T03:23:09;7.30;99.90
18717;DHT22;9487;50.892;6.906;2024-02-26T03:25:38;7.30;91.10
18717;DHT22;9487;50.892;6.906;2024-02-26T03:28:05;7.30;99.90
18717;DHT22;9487;50.892;6.906;2024-02-26T03:30:34;7.40;99.90
18717;DHT22;9487;50.892;6.906;2024-02-26T03:33:01;7.30;99.90
18717;DHT22;9487;50.892;6.906;2024-02-26T03:35:28;7.30;99.90
18717;DHT22;9487;50.892;6.906;2024-02-26T03:37:55;7.40;99.90
18717;DHT22;9487;50.892;6.906;2024-02-26T03:40:21;7.40;99.90
18717;DHT22;9487;50.892;6.906;2024-02-26T03:42:48;7.40;99.90
18717;DHT22;9487;50.892;6.906;2024-02-26T03:45:15;7.40;99.90
18717;DHT22;9487;50.892;6.906;2024-02-26T03:47:44;7.40;99.90
18717;DHT22;9487;50.892;6.906;2024-02-26T03:50:11;7.40;99.90
18717;DHT22;9487;50.892;6.906;2024-02-26T03:52:38;7.40;99.90
18717;DHT22;9487;50.892;6.906;2024-02-26T03:55:05;7.40;99.90
18717;DHT22;9487;50.892;6.906;2024-02-26T03:57:32;7.40;99.90
18717;DHT22;9487;50.892;6.906;2024-02-26T03:59:59;7.30;99.90
18717;DHT22;9487;50.892;6.906;2024-02-26T04:02:26;7.40;99.90
18717;DHT22;9487;50.892;6.906;2024-02-26T04:04:55;7.40;99.90
18717;DHT22;9487;50.892;6.906;2024-02-26T04:07:21;7.40;99.90
18717;DHT22;9487;50.892;6.906;2024-02-26T04:09:48;7.40;99.90
18717;DHT22;9487;50.892;6.906;2024-02-26T04:12:15;7.40;99.90
18717;DHT22;9487;50.892;6.906;2024-02-26T04:14:42;7.40;99.90
18717;DHT22;9487;50.892;6.906;2024-02-26T04:17:10;7.40;99.90
18717;DHT22;9487;50.892;6.906;2024-02-26T04:19:37;7.30;99.90
18717;DHT22;9487;50.892;6.906;2024-02-26T04:22:05;7.30;1.00
18717;DHT22;9487;50.892;6.906;2024-02-26T04:24:32;7.40;1.00
18717;DHT22;9487;50.892;6.906;2024-02-26T04:26:59;7.40;99.90
18717;DHT22;9487;50.892;6.906;2024-02-26T04:29:26;7.40;99.90
18717;DHT22;9487;50.892;6.906;2024-02-26T04:31:52;7.40;99.90
18717;DHT22;9487;50.892;6.906;2024-02-26T04:34:19;7.40;1.00
18717;DHT22;9487;50.892;6.906;2024-02-26T04:36:46;7.30;1.00
18717;DHT22;9487;50.892;6.906;2024-02-26T04:39:14;7.40;1.00
18717;DHT22;9487;50.892;6.906;2024-02-26T04:41:41;7.30;1.00
18717;DHT22;9487;50.892;6.906;2024-02-26T04:44:08;7.40;1.00
18717;DHT22;9487;50.892;6.906;2024-02-26T04:46:35;7.40;1.00
18717;DHT22;9487;50.892;6.906;2024-02-26T04:49:02;7.30;1.00
18717;DHT22;9487;50.892;6.906;2024-02-26T04:51:29;7.30;1.00
18717;DHT22;9487;50.892;6.906;2024-02-26T04:53:55;7.30;1.00
18717;DHT22;9487;50.892;6.906;2024-02-26T04:56:24;7.30;1.00
18717;DHT22;9487;50.892;6.906;2024-02-26T04:58:51;7.30;1.00
18717;DHT22;9487;50.892;6.906;2024-02-26T05:01:18;7.20;1.00
18717;DHT22;9487;50.892;6.906;2024-02-26T05:03:45;7.20;1.00
18717;DHT22;9487;50.892;6.906;2024-02-26T05:06:12;7.20;1.00
18717;DHT22;9487;50.892;6.906;2024-02-26T05:08:39;7.20;1.00
18717;DHT22;9487;50.892;6.906;2024-02-26T05:11:05;7.20;1.00
18717;DHT22;9487;50.892;6.906;2024-02-26T05:13:33;7.20;1.00
18717;DHT22;9487;50.892;6.906;2024-02-26T05:16:00;7.20;1.00
18717;DHT22;9487;50.892;6.906;2024-02-26T05:18:28;7.20;1.00
18717;DHT22;9487;50.892;6.906;2024-02-26T05:20:55;7.20;1.00
18717;DHT22;9487;50.892;6.906;2024-02-26T05:23:22;7.10;1.00
18717;DHT22;9487;50.892;6.906;2024-02-26T05:25:49;7.10;1.00
18717;DHT22;9487;50.892;6.906;2024-02-26T05:28:15;7.00;1.00
18717;DHT22;9487;50.892;6.906;2024-02-26T05:30:45;7.00;1.00
18717;DHT22;9487;50.892;6.906;2024-02-26T05:33:12;6.90;1.00
18717;DHT22;9487;50.892;6.906;2024-02-26T05:35:39;6.70;1.00
18717;DHT22;9487;50.892;6.906;2024-02-26T05:38:06;6.80;1.00
18717;DHT22;9487;50.892;6.906;2024-02-26T05:40:33;6.70;1.00
18717;DHT22;9487;50.892;6.906;2024-02-26T05:42:59;6.80;19.50
18717;DHT22;9487;50.892;6.906;2024-02-26T05:45:26;6.80;10.00
18717;DHT22;9487;50.892;6.906;2024-02-26T05:47:54;6.80;9.80
18717;DHT22;9487;50.892;6.906;2024-02-26T05:50:21;6.70;34.20
18717;DHT22;9487;50.892;6.906;2024-02-26T05:52:48;6.70;94.70
18717;DHT22;9487;50.892;6.906;2024-02-26T05:55:15;6.70;99.90
18717;DHT22;9487;50.892;6.906;2024-02-26T05:57:41;6.80;99.90
18717;DHT22;9487;50.892;6.906;2024-02-26T06:00:09;6.80;99.90
18717;DHT22;9487;50.892;6.906;2024-02-26T06:02:38;6.60;99.00
18717;DHT22;9487;50.892;6.906;2024-02-26T06:05:07;6.70;99.90
18717;DHT22;9487;50.892;6.906;2024-02-26T06:07:34;6.70;99.90
18717;DHT22;9487;50.892;6.906;2024-02-26T06:10:01;6.60;99.90
18717;DHT22;9487;50.892;6.906;2024-02-26T06:12:30;6.60;99.90
18717;DHT22;9487;50.892;6.906;2024-02-26T06:14:58;6.70;99.90
18717;DHT22;9487;50.892;6.906;2024-02-26T06:17:26;6.60;99.90
18717;DHT22;9487;50.892;6.906;2024-02-26T06:19:54;6.70;99.90
18717;DHT22;9487;50.892;6.906;2024-02-26T06:22:22;6.70;99.90
18717;DHT22;9487;50.892;6.906;2024-02-26T06:24:49;6.80;99.90
18717;DHT22;9487;50.892;6.906;2024-02-26T06:27:15;6.80;99.90
18717;DHT22;9487;50.892;6.906;2024-02-26T06:29:42;6.70;99.90
18717;DHT22;9487;50.892;6.906;2024-02-26T06:32:09;6.70;99.90
18717;DHT22;9487;50.892;6.906;2024-02-26T06:34:36;6.60;99.90
18717;DHT22;9487;50.892;6.906;2024-02-26T06:37:03;6.60;99.90
18717;DHT22;9487;50.892;6.906;2024-02-26T06:39:32;6.50;99.90
18717;DHT22;9487;50.892;6.906;2024-02-26T06:41:58;6.70;99.90
18717;DHT22;9487;50.892;6.906;2024-02-26T06:44:27;6.80;99.90
18717;DHT22;9487;50.892;6.906;2024-02-26T06:46:57;6.80;99.90
18717;DHT22;9487;50.892;6.906;2024-02-26T06:49:24;6.80;99.90
18717;DHT22;9487;50.892;6.906;2024-02-26T06:51:51;6.80;99.90
18717;DHT22;9487;50.892;6.906;2024-02-26T06:54:18;6.80;99.90
18717;DHT22;9487;50.892;6.906;2024-02-26T06:56:46;6.60;99.90
18717;DHT22;9487;50.892;6.906;2024-02-26T06:59:13;6.70;99.90
18717;DHT22;9487;50.892;6.906;2024-02-26T07:01:40;6.70;99.90
18717;DHT22;9487;50.892;6.906;2024-02-26T07:04:07;6.60;99.90
18717;DHT22;9487;50.892;6.906;2024-02-26T07:06:34;6.70;99.90
18717;DHT22;9487;50.892;6.906;2024-02-26T07:09:01;6.60;99.90
18717;DHT22;9487;50.892;6.906;2024-02-26T07:11:28;6.70;99.90
18717;DHT22;9487;50.892;6.906;2024-02-26T07:13:56;6.70;99.90
18717;DHT22;9487;50.892;6.906;2024-02-26T07:16:23;6.70;99.90
18717;DHT22;9487;50.892;6.906;2024-02-26T07:18:49;6.60;99.90
18717;DHT22;9487;50.892;6.906;2024-02-26T07:21:16;6.50;99.90
18717;DHT22;9487;50.892;6.906;2024-02-26T07:23:43;6.60;99.90
18717;DHT22;9487;50.892;6.906;2024-02-26T07:26:10;6.60;99.90
18717;DHT22;9487;50.892;6.906;2024-02-26T07:28:37;6.50;99.90
18717;DHT22;9487;50.892;6.906;2024-02-26T07:31:05;6.50;99.90
18717;DHT22;9487;50.892;6.906;2024-02-26T07:33:32;6.60;99.90
18717;DHT22;9487;50.892;6.906;2024-02-26T07:35:59;6.60;99.90
18717;DHT22;9487;50.892;6.906;2024-02-26T07:38:26;6.60;99.90
18717;DHT22;9487;50.892;6.906;2024-02-26T07:40:53;6.50;99.90
18717;DHT22;9487;50.892;6.906;2024-02-26T07:43:19;6.50;99.90
18717;DHT22;9487;50.892;6.906;2024-02-26T07:45:46;6.70;99.90
18717;DHT22;9487;50.892;6.906;2024-02-26T07:48:14;6.70;99.90
18717;DHT22;9487;50.892;6.906;2024-02-26T07:50:41;6.70;99.90
18717;DHT22;9487;50.892;6.906;2024-02-26T07:53:08;8.30;99.90
18717;DHT22;9487;50.892;6.906;2024-02-26T07:55:35;8.70;99.90
18717;DHT22;9487;50.892;6.906;2024-02-26T07:58:02;8.40;99.90
18717;DHT22;9487;50.892;6.906;2024-02-26T08:00:28;7.80;99.90
18717;DHT22;9487;50.892;6.906;2024-02-26T08:02:55;7.50;99.90
18717;DHT22;9487;50.892;6.906;2024-02-26T08:05:23;7.40;99.90
18717;DHT22;9487;50.892;6.906;2024-02-26T08:07:50;7.40;99.90
18717;DHT22;9487;50.892;6.906;2024-02-26T08:10:17;7.20;99.90
18717;DHT22;9487;50.892;6.906;2024-02-26T08:12:44;7.20;99.90
18717;DHT22;9487;50.892;6.906;2024-02-26T08:15:11;7.20;99.90
18717;DHT22;9487;50.892;6.906;2024-02-26T08:17:38;7.10;99.90
18717;DHT22;9487;50.892;6.906;2024-02-26T08:20:06;7.00;99.90
18717;DHT22;9487;50.892;6.906;2024-02-26T08:22:35;7.00;99.90
18717;DHT22;9487;50.892;6.906;2024-02-26T08:25:03;7.00;99.90
18717;DHT22;9487;50.892;6.906;2024-02-26T08:27:32;6.90;99.90
18717;DHT22;9487;50.892;6.906;2024-02-26T08:29:59;7.00;99.90
18717;DHT22;9487;50.892;6.906;2024-02-26T08:32:25;7.00;99.90
18717;DHT22;9487;50.892;6.906;2024-02-26T08:34:52;7.10;99.90
18717;DHT22;9487;50.892;6.906;2024-02-26T08:37:19;7.10;99.90
18717;DHT22;9487;50.892;6.906;2024-02-26T08:39:47;7.10;99.90
18717;DHT22;9487;50.892;6.906;2024-02-26T08:42:14;7.10;99.90
18717;DHT22;9487;50.892;6.906;2024-02-26T08:44:41;7.10;99.90
18717;DHT22;9487;50.892;6.906;2024-02-26T08:47:07;7.10;99.90
18717;DHT22;9487;50.892;6.906;2024-02-26T08:49:34;7.00;99.90
18717;DHT22;9487;50.892;6.906;2024-02-26T08:52:01;7.10;99.90
18717;DHT22;9487;50.892;6.906;2024-02-26T08:54:28;7.00;99.90
18717;DHT22;9487;50.892;6.906;2024-02-26T08:56:56;7.10;99.90
18717;DHT22;9487;50.892;6.906;2024-02-26T08:59:23;7.10;99.90
18717;DHT22;9487;50.892;6.906;2024-02-26T09:01:50;7.00;99.90
18717;DHT22;9487;50.892;6.906;2024-02-26T09:04:16;6.90;99.90
18717;DHT22;9487;50.892;6.906;2024-02-26T09:06:43;6.90;99.90
18717;DHT22;9487;50.892;6.906;2024-02-26T09:09:10;7.00;99.90
18717;DHT22;9487;50.892;6.906;2024-02-26T09:11:37;7.00;99.90
18717;DHT22;9487;50.892;6.906;2024-02-26T09:14:05;7.00;99.90
18717;DHT22;9487;50.892;6.906;2024-02-26T09:16:32;7.10;99.90
18717;DHT22;9487;50.892;6.906;2024-02-26T09:18:59;7.10;99.90
18717;DHT22;9487;50.892;6.906;2024-02-26T09:21:25;7.00;99.90
18717;DHT22;9487;50.892;6.906;2024-02-26T09:23:53;7.00;99.90
18717;DHT22;9487;50.892;6.906;2024-02-26T09:26:20;6.90;99.90
18717;DHT22;9487;50.892;6.906;2024-02-26T09:28:46;7.00;99.90
18717;DHT22;9487;50.892;6.906;2024-02-26T09:31:17;7.00;99.90
18717;DHT22;9487;50.892;6.906;2024-02-26T09:33:44;7.00;99.90
18717;DHT22;9487;50.892;6.906;2024-02-26T09:36:11;7.10;99.90
18717;DHT22;9487;50.892;6.906;2024-02-26T09:38:38;7.10;99.90
18717;DHT22;9487;50.892;6.906;2024-02-26T09:41:05;7.20;99.90
18717;DHT22;9487;50.892;6.906;2024-02-26T09:43:35;7.20;99.90
18717;DHT22;9487;50.892;6.906;2024-02-26T09:46:04;7.20;99.90
18717;DHT22;9487;50.892;6.906;2024-02-26T09:48:34;7.10;99.90
18717;DHT22;9487;50.892;6.906;2024-02-26T09:51:02;7.10;99.90
18717;DHT22;9487;50.892;6.906;2024-02-26T09:53:30;7.20;99.90
18717;DHT22;9487;50.892;6.906;2024-02-26T09:55:57;7.10;99.90
18717;DHT22;9487;50.892;6.906;2024-02-26T09:58:25;7.20;99.90
18717;DHT22;9487;50.892;6.906;2024-02-26T10:00:56;7.10;99.90
18717;DHT22;9487;50.892;6.906;2024-02-26T10:03:28;7.20;99.90
18717;DHT22;9487;50.892;6.906;2024-02-26T10:05:56;7.20;99.90
18717;DHT22;9487;50.892;6.906;2024-02-26T10:08:24;7.10;99.90
18717;DHT22;9487;50.892;6.906;2024-02-26T10:10:51;7.00;99.90
18717;DHT22;9487;50.892;6.906;2024-02-26T10:13:18;7.00;99.90
18717;DHT22;9487;50.892;6.906;2024-02-26T10:15:46;7.00;99.90
18717;DHT22;9487;50.892;6.906;2024-02-26T10:18:12;6.90;99.90
18717;DHT22;9487;50.892;6.906;2024-02-26T10:20:39;7.00;99.90
18717;DHT22;9487;50.892;6.906;2024-02-26T10:23:07;6.90;99.90
18717;DHT22;9487;50.892;6.906;2024-02-26T10:25:34;6.90;99.90
18717;DHT22;9487;50.892;6.906;2024-02-26T10:28:01;7.00;99.90
18717;DHT22;9487;50.892;6.906;2024-02-26T10:30:29;7.00;99.90
18717;DHT22;9487;50.892;6.906;2024-02-26T10:32:56;7.20;99.90
18717;DHT22;9487;50.892;6.906;2024-02-26T10:35:23;7.40;99.90
18717;DHT22;9487;50.892;6.906;2024-02-26T10:37:50;7.50;99.90
18717;DHT22;9487;50.892;6.906;2024-02-26T10:40:19;7.40;99.90
18717;DHT22;9487;50.892;6.906;2024-02-26T10:42:46;7.30;99.90
18717;DHT22;9487;50.892;6.906;2024-02-26T10:45:13;7.30;99.90
18717;DHT22;9487;50.892;6.906;2024-02-26T10:47:40;7.30;99.90
18717;DHT22;9487;50.892;6.906;2024-02-26T10:50:08;7.30;99.90
18717;DHT22;9487;50.892;6.906;2024-02-26T10:52:36;7.30;99.90
18717;DHT22;9487;50.892;6.906;2024-02-26T10:55:05;7.40;99.90
18717;DHT22;9487;50.892;6.906;2024-02-26T10:57:35;7.40;99.90
18717;DHT22;9487;50.892;6.906;2024-02-26T11:00:05;7.50;99.90
18717;DHT22;9487;50.892;6.906;2024-02-26T11:02:36;7.70;99.90
18717;DHT22;9487;50.892;6.906;2024-02-26T11:05:03;7.80;99.90
18717;DHT22;9487;50.892;6.906;2024-02-26T11:07:30;7.80;99.90
18717;DHT22;9487;50.892;6.906;2024-02-26T11:09:58;7.80;99.90
18717;DHT22;9487;50.892;6.906;2024-02-26T11:12:27;7.90;99.90
18717;DHT22;9487;50.892;6.906;2024-02-26T11:14:56;8.00;99.90
18717;DHT22;9487;50.892;6.906;2024-02-26T11:17:26;7.90;99.90
18717;DHT22;9487;50.892;6.906;2024-02-26T11:19:55;7.60;99.90
18717;DHT22;9487;50.892;6.906;2024-02-26T11:22:23;7.50;99.90
18717;DHT22;9487;50.892;6.906;2024-02-26T11:24:51;7.50;99.90
18717;DHT22;9487;50.892;6.906;2024-02-26T11:27:23;7.60;99.90
18717;DHT22;9487;50.892;6.906;2024-02-26T11:29:52;7.60;99.90
18717;DHT22;9487;50.892;6.906;2024-02-26T11:32:21;7.80;99.90
18717;DHT22;9487;50.892;6.906;2024-02-26T11:34:48;7.90;99.90
18717;DHT22;9487;50.892;6.906;2024-02-26T11:37:17;7.90;99.90
18717;DHT22;9487;50.892;6.906;2024-02-26T11:39:45;7.90;99.90
18717;DHT22;9487;50.892;6.906;2024-02-26T11:42:14;7.90;99.90
18717;DHT22;9487;50.892;6.906;2024-02-26T11:44:41;7.70;99.90
18717;DHT22;9487;50.892;6.906;2024-02-26T11:47:12;7.70;99.90
18717;DHT22;9487;50.892;6.906;2024-02-26T11:49:40;7.70;99.90
18717;DHT22;9487;50.892;6.906;2024-02-26T11:52:08;7.80;99.90
18717;DHT22;9487;50.892;6.906;2024-02-26T11:54:48;7.80;99.90
18717;DHT22;9487;50.892;6.906;2024-02-26T11:57:23;7.90;99.90
18717;DHT22;9487;50.892;6.906;2024-02-26T11:59:51;7.90;99.90
18717;DHT22;9487;50.892;6.906;2024-02-26T12:02:39;8.00;99.90
18717;DHT22;9487;50.892;6.906;2024-02-26T12:05:10;8.10;99.90
18717;DHT22;9487;50.892;6.906;2024-02-26T12:07:40;8.00;99.90
18717;DHT22;9487;50.892;6.906;2024-02-26T12:10:22;8.10;99.90
18717;DHT22;9487;50.892;6.906;2024-02-26T12:13:00;8.30;99.90
18717;DHT22;9487;50.892;6.906;2024-02-26T12:15:31;8.20;99.90
18717;DHT22;9487;50.892;6.906;2024-02-26T12:18:00;8.10;99.90
18717;DHT22;9487;50.892;6.906;2024-02-26T12:20:29;8.20;99.90
18717;DHT22;9487;50.892;6.906;2024-02-26T12:22:56;8.00;99.90
18717;DHT22;9487;50.892;6.906;2024-02-26T12:25:25;7.90;99.90
18717;DHT22;9487;50.892;6.906;2024-02-26T12:27:52;8.10;99.90
18717;DHT22;9487;50.892;6.906;2024-02-26T12:30:19;8.30;99.90
18717;DHT22;9487;50.892;6.906;2024-02-26T12:32:46;8.30;99.90
18717;DHT22;9487;50.892;6.906;2024-02-26T12:35:13;8.30;99.90
18717;DHT22;9487;50.892;6.906;2024-02-26T12:37:42;8.30;99.90
18717;DHT22;9487;50.892;6.906;2024-02-26T12:40:10;8.10;99.90
18717;DHT22;9487;50.892;6.906;2024-02-26T12:42:38;7.90;99.90
18717;DHT22;9487;50.892;6.906;2024-02-26T12:45:06;7.80;99.90
18717;DHT22;9487;50.892;6.906;2024-02-26T12:47:36;7.70;99.90
18717;DHT22;9487;50.892;6.906;2024-02-26T12:50:04;7.70;99.90
18717;DHT22;9487;50.892;6.906;2024-02-26T12:52:31;7.60;99.90
18717;DHT22;9487;50.892;6.906;2024-02-26T12:55:01;7.60;99.90
18717;DHT22;9487;50.892;6.906;2024-02-26T12:57:28;7.70;99.90
18717;DHT22;9487;50.892;6.906;2024-02-26T12:59:56;7.80;99.90
18717;DHT22;9487;50.892;6.906;2024-02-26T13:02:23;7.60;99.90
18717;DHT22;9487;50.892;6.906;2024-02-26T13:04:50;7.60;99.90
18717;DHT22;9487;50.892;6.906;2024-02-26T13:07:17;7.70;99.90
18717;DHT22;9487;50.892;6.906;2024-02-26T13:09:44;7.70;99.90
18717;DHT22;9487;50.892;6.906;2024-02-26T13:12:13;7.80;99.90
18717;DHT22;9487;50.892;6.906;2024-02-26T13:14:40;8.00;99.90
18717;DHT22;9487;50.892;6.906;2024-02-26T13:17:07;8.00;99.90
18717;DHT22;9487;50.892;6.906;2024-02-26T13:19:34;8.00;99.90
18717;DHT22;9487;50.892;6.906;2024-02-26T13:22:05;8.00;99.90
18717;DHT22;9487;50.892;6.906;2024-02-26T13:24:33;8.00;99.90
18717;DHT22;9487;50.892;6.906;2024-02-26T13:27:00;8.00;99.90
18717;DHT22;9487;50.892;6.906;2024-02-26T13:29:30;8.00;99.90
18717;DHT22;9487;50.892;6.906;2024-02-26T13:31:57;7.80;99.90
18717;DHT22;9487;50.892;6.906;2024-02-26T13:34:25;7.80;99.90
18717;DHT22;9487;50.892;6.906;2024-02-26T13:36:52;7.90;99.90
18717;DHT22;9487;50.892;6.906;2024-02-26T13:39:23;7.80;99.90
18717;DHT22;9487;50.892;6.906;2024-02-26T13:41:50;7.90;99.90
18717;DHT22;9487;50.892;6.906;2024-02-26T13:44:17;7.80;99.90
18717;DHT22;9487;50.892;6.906;2024-02-26T13:46:46;7.80;99.90
18717;DHT22;9487;50.892;6.906;2024-02-26T13:49:13;7.70;99.90
18717;DHT22;9487;50.892;6.906;2024-02-26T13:51:39;7.70;99.90
18717;DHT22;9487;50.892;6.906;2024-02-26T13:54:06;7.70;99.90
18717;DHT22;9487;50.892;6.906;2024-02-26T13:56:35;7.70;99.90
18717;DHT22;9487;50.892;6.906;2024-02-26T13:59:02;7.70;99.90
18717;DHT22;9487;50.892;6.906;2024-02-26T14:01:29;7.70;99.90
18717;DHT22;9487;50.892;6.906;2024-02-26T14:04:00;7.80;99.90
18717;DHT22;9487;50.892;6.906;2024-02-26T14:06:27;7.80;99.90
18717;DHT22;9487;50.892;6.906;2024-02-26T14:08:56;7.80;99.90
18717;DHT22;9487;50.892;6.906;2024-02-26T14:11:23;7.80;99.90
18717;DHT22;9487;50.892;6.906;2024-02-26T14:13:51;7.80;99.90
18717;DHT22;9487;50.892;6.906;2024-02-26T14:16:17;7.70;99.90
18717;DHT22;9487;50.892;6.906;2024-02-26T14:18:45;7.80;99.90
18717;DHT22;9487;50.892;6.906;2024-02-26T14:21:14;7.90;99.90
18717;DHT22;9487;50.892;6.906;2024-02-26T14:23:41;7.90;99.90
18717;DHT22;9487;50.892;6.906;2024-02-26T14:26:10;8.00;99.90
18717;DHT22;9487;50.892;6.906;2024-02-26T14:28:37;8.10;99.90
18717;DHT22;9487;50.892;6.906;2024-02-26T14:31:05;8.10;99.90
18717;DHT22;9487;50.892;6.906;2024-02-26T14:33:32;8.00;99.90
18717;DHT22;9487;50.892;6.906;2024-02-26T14:35:59;8.00;99.90
18717;DHT22;9487;50.892;6.906;2024-02-26T14:38:28;8.00;99.90
18717;DHT22;9487;50.892;6.906;2024-02-26T14:40:56;8.00;99.90
18717;DHT22;9487;50.892;6.906;2024-02-26T14:43:23;7.90;99.90
18717;DHT22;9487;50.892;6.906;2024-02-26T14:45:50;7.90;99.90
18717;DHT22;9487;50.892;6.906;2024-02-26T14:48:16;7.90;99.90
18717;DHT22;9487;50.892;6.906;2024-02-26T14:50:43;7.80;99.90
18717;DHT22;9487;50.892;6.906;2024-02-26T14:53:10;7.90;99.90
18717;DHT22;9487;50.892;6.906;2024-02-26T14:55:38;7.90;99.90
18717;DHT22;9487;50.892;6.906;2024-02-26T14:58:05;7.90;99.90
18717;DHT22;9487;50.892;6.906;2024-02-26T15:00:32;7.90;99.90
18717;DHT22;9487;50.892;6.906;2024-02-26T15:03:01;7.90;99.90
18717;DHT22;9487;50.892;6.906;2024-02-26T15:05:27;7.90;99.90
18717;DHT22;9487;50.892;6.906;2024-02-26T15:07:54;7.90;99.90
18717;DHT22;9487;50.892;6.906;2024-02-26T15:10:21;7.90;99.90
18717;DHT22;9487;50.892;6.906;2024-02-26T15:12:49;7.90;99.90
18717;DHT22;9487;50.892;6.906;2024-02-26T15:15:20;8.00;99.90
18717;DHT22;9487;50.892;6.906;2024-02-26T15:17:47;8.00;99.90
18717;DHT22;9487;50.892;6.906;2024-02-26T15:20:15;8.00;99.90
18717;DHT22;9487;50.892;6.906;2024-02-26T15:22:42;8.00;99.90
18717;DHT22;9487;50.892;6.906;2024-02-26T15:25:09;8.00;99.90
18717;DHT22;9487;50.892;6.906;2024-02-26T15:27:36;8.10;99.90
18717;DHT22;9487;50.892;6.906;2024-02-26T15:30:06;8.10;99.90
18717;DHT22;9487;50.892;6.906;2024-02-26T15:32:33;8.10;99.90
18717;DHT22;9487;50.892;6.906;2024-02-26T15:34:59;8.10;99.90
18717;DHT22;9487;50.892;6.906;2024-02-26T15:37:26;8.10;99.90
18717;DHT22;9487;50.892;6.906;2024-02-26T15:39:53;8.00;99.90
18717;DHT22;9487;50.892;6.906;2024-02-26T15:42:20;8.10;99.90
18717;DHT22;9487;50.892;6.906;2024-02-26T15:44:48;8.10;99.90
18717;DHT22;9487;50.892;6.906;2024-02-26T15:47:16;8.10;99.90
18717;DHT22;9487;50.892;6.906;2024-02-26T15:49:43;8.20;99.90
18717;DHT22;9487;50.892;6.906;2024-02-26T15:52:10;8.20;99.90
18717;DHT22;9487;50.892;6.906;2024-02-26T15:54:38;8.20;99.90
18717;DHT22;9487;50.892;6.906;2024-02-26T15:57:05;8.20;99.90
18717;DHT22;9487;50.892;6.906;2024-02-26T15:59:35;8.20;99.90
18717;DHT22;9487;50.892;6.906;2024-02-26T16:02:02;8.20;99.90
18717;DHT22;9487;50.892;6.906;2024-02-26T16:04:30;8.10;99.90
18717;DHT22;9487;50.892;6.906;2024-02-26T16:07:01;8.10;99.90